createdAt,value
2019-02-18T00:00:36.676Z,27.39
2019-02-18T00:01:36.689Z,27.20
2019-02-18T00:02:36.699Z,27.58
2019-02-18T00:03:36.707Z,27.58
2019-02-18T00:04:36.717Z,27.49
2019-02-18T00:05:36.727Z,27.68
2019-02-18T00:06:36.739Z,27.87
2019-02-18T00:07:36.750Z,27.87
2019-02-18T00:08:36.755Z,27.87
2019-02-18T00:09:36.767Z,27.68
2019-02-18T00:10:36.777Z,27.49
2019-02-18T00:11:36.793Z,27.58
2019-02-18T00:12:36.799Z,27.58
2019-02-18T00:13:36.808Z,27.68
2019-02-18T00:14:36.817Z,27.77
2019-02-18T00:15:36.826Z,27.49
2019-02-18T00:16:36.836Z,27.11
2019-02-18T00:17:36.846Z,27.68
2019-02-18T00:18:36.860Z,27.49
2019-02-18T00:19:36.865Z,26.54
2019-02-18T00:20:36.880Z,26.45
2019-02-18T00:21:36.886Z,26.82
2019-02-18T00:22:36.899Z,27.77
2019-02-18T00:23:36.907Z,28.34
2019-02-18T00:24:36.920Z,28.25
2019-02-18T00:25:36.932Z,28.44
2019-02-18T00:26:36.937Z,28.25
2019-02-18T00:27:36.948Z,27.58
2019-02-18T00:28:37.128Z,27.77
2019-02-18T00:29:36.968Z,28.15
2019-02-18T00:30:36.983Z,27.96
2019-02-18T00:31:36.988Z,27.68
2019-02-18T00:32:36.998Z,27.39
2019-02-18T00:33:37.007Z,27.58
2019-02-18T00:34:37.017Z,27.49
2019-02-18T00:35:37.026Z,27.20
2019-02-18T00:36:37.036Z,26.92
2019-02-18T00:37:37.045Z,26.35
2019-02-18T00:38:37.073Z,27.30
2019-02-18T00:39:37.065Z,27.49
2019-02-18T00:40:37.078Z,27.30
2019-02-18T00:41:37.086Z,27.01
2019-02-18T00:42:37.175Z,27.20
2019-02-18T00:43:37.105Z,27.39
2019-02-18T00:44:37.119Z,27.49
2019-02-18T00:45:37.126Z,27.77
2019-02-18T00:46:37.136Z,28.14
2019-02-18T00:47:37.144Z,28.04
2019-02-18T00:48:37.156Z,28.04
2019-02-18T00:49:37.164Z,27.95
2019-02-18T00:50:37.173Z,27.95
2019-02-18T00:51:37.183Z,27.57
2019-02-18T00:52:37.193Z,27.76
2019-02-18T00:53:37.202Z,27.66
2019-02-18T00:54:37.214Z,27.85
2019-02-18T00:55:37.224Z,27.76
2019-02-18T00:56:37.234Z,27.38
2019-02-18T00:57:37.242Z,27.30
2019-02-18T00:58:37.253Z,26.64
2019-02-18T00:59:37.262Z,26.64
2019-02-18T01:00:37.272Z,26.64
2019-02-18T01:01:37.284Z,26.45
2019-02-18T01:02:37.291Z,26.45
2019-02-18T01:03:37.303Z,26.26
2019-02-18T01:04:37.311Z,26.45
2019-02-18T01:05:37.324Z,26.54
2019-02-18T01:06:37.333Z,27.20
2019-02-18T01:07:37.345Z,27.30
2019-02-18T01:08:37.353Z,27.49
2019-02-18T01:09:37.361Z,27.20
2019-02-18T01:10:37.369Z,27.09
2019-02-18T01:11:37.377Z,26.62
2019-02-18T01:12:37.391Z,26.62
2019-02-18T01:13:37.400Z,27.09
2019-02-18T01:14:37.407Z,27.28
2019-02-18T01:15:37.417Z,27.38
2019-02-18T01:16:37.427Z,26.53
2019-02-18T01:17:37.438Z,26.53
2019-02-18T01:18:37.447Z,26.62
2019-02-18T01:19:37.457Z,26.81
2019-02-18T01:20:37.470Z,26.62
2019-02-18T01:21:37.478Z,26.53
2019-02-18T01:22:37.485Z,26.15
2019-02-18T01:23:37.494Z,26.15
2019-02-18T01:24:37.507Z,26.43
2019-02-18T01:25:37.514Z,26.53
2019-02-18T01:26:37.524Z,26.72
2019-02-18T01:27:37.539Z,26.24
2019-02-18T01:28:37.541Z,26.53
2019-02-18T01:29:37.554Z,27.47
2019-02-18T01:30:37.561Z,27.38
2019-02-18T01:31:37.573Z,27.57
2019-02-18T01:32:37.579Z,27.57
2019-02-18T01:33:37.590Z,27.57
2019-02-18T01:34:37.599Z,27.66
2019-02-18T01:35:37.614Z,27.57
2019-02-18T01:36:37.618Z,27.66
2019-02-18T01:37:45.219Z,27.28
2019-02-18T01:38:37.640Z,26.62
2019-02-18T01:39:37.656Z,26.43
2019-02-18T01:40:37.660Z,26.53
2019-02-18T01:41:37.666Z,26.72
2019-02-18T01:42:37.677Z,26.62
2019-02-18T01:43:37.691Z,26.72
2019-02-18T01:44:37.696Z,26.62
2019-02-18T01:45:37.705Z,27.00
2019-02-18T01:46:37.716Z,27.19
2019-02-18T01:47:37.728Z,27.19
2019-02-18T01:48:37.735Z,27.57
2019-02-18T01:49:37.743Z,27.57
2019-02-18T01:50:37.753Z,27.47
2019-02-18T01:51:37.761Z,27.66
2019-02-18T01:52:37.773Z,27.47
2019-02-18T01:53:37.781Z,27.38
2019-02-18T01:54:37.793Z,27.38
2019-02-18T01:55:37.807Z,27.76
2019-02-18T01:56:37.811Z,27.57
2019-02-18T01:57:37.819Z,27.38
2019-02-18T01:58:37.830Z,27.47
2019-02-18T01:59:37.839Z,27.28
2019-02-18T02:00:37.854Z,27.28
2019-02-18T02:01:37.866Z,26.72
2019-02-18T02:02:37.870Z,26.43
2019-02-18T02:03:37.878Z,26.62
2019-02-18T02:04:37.887Z,26.34
2019-02-18T02:05:37.898Z,26.62
2019-02-18T02:06:37.905Z,26.81
2019-02-18T02:07:37.915Z,26.53
2019-02-18T02:08:37.922Z,26.72
2019-02-18T02:09:37.933Z,26.62
2019-02-18T02:10:37.944Z,27.38
2019-02-18T02:11:37.972Z,27.47
2019-02-18T02:12:37.963Z,27.57
2019-02-18T02:13:37.974Z,27.76
2019-02-18T02:14:37.981Z,27.57
2019-02-18T02:15:37.989Z,27.09
2019-02-18T02:16:38.004Z,26.62
2019-02-18T02:17:38.016Z,26.53
2019-02-18T02:18:38.019Z,26.62
2019-02-18T02:19:38.028Z,26.15
2019-02-18T02:20:38.040Z,26.53
2019-02-18T02:21:38.047Z,27.28
2019-02-18T02:22:38.060Z,27.19
2019-02-18T02:23:38.066Z,26.62
2019-02-18T02:24:38.075Z,26.53
2019-02-18T02:25:38.086Z,26.34
2019-02-18T02:26:38.094Z,26.43
2019-02-18T02:27:38.103Z,26.15
2019-02-18T02:28:38.113Z,26.05
2019-02-18T02:29:38.122Z,26.62
2019-02-18T02:30:38.132Z,27.09
2019-02-18T02:31:38.143Z,26.62
2019-02-18T02:32:38.152Z,27.09
2019-02-18T02:33:38.163Z,27.57
2019-02-18T02:34:38.167Z,27.47
2019-02-18T02:35:38.189Z,27.47
2019-02-18T02:36:38.191Z,27.57
2019-02-18T02:37:38.200Z,27.76
2019-02-18T02:38:38.210Z,27.57
2019-02-18T02:39:38.215Z,27.47
2019-02-18T02:40:38.226Z,27.85
2019-02-18T02:41:38.246Z,27.57
2019-02-18T02:42:38.246Z,27.76
2019-02-18T02:43:38.252Z,27.57
2019-02-18T02:44:38.265Z,27.47
2019-02-18T02:45:38.277Z,27.47
2019-02-18T02:46:38.287Z,27.38
2019-02-18T02:47:38.289Z,27.57
2019-02-18T02:48:38.313Z,27.47
2019-02-18T02:49:38.355Z,27.66
2019-02-18T02:50:38.320Z,27.66
2019-02-18T02:51:38.328Z,27.47
2019-02-18T02:52:38.338Z,27.76
2019-02-18T02:53:38.356Z,27.66
2019-02-18T02:54:38.357Z,27.66
2019-02-18T02:55:38.369Z,27.57
2019-02-18T02:56:38.374Z,27.28
2019-02-18T02:57:38.385Z,27.28
2019-02-18T02:58:38.394Z,27.28
2019-02-18T02:59:38.402Z,27.47
2019-02-18T03:00:38.420Z,27.19
2019-02-18T03:01:38.421Z,27.19
2019-02-18T03:02:38.429Z,27.38
2019-02-18T03:03:38.442Z,27.38
2019-02-18T03:04:38.446Z,27.57
2019-02-18T03:05:38.461Z,27.66
2019-02-18T03:06:38.469Z,27.66
2019-02-18T03:07:38.481Z,27.66
2019-02-18T03:08:38.486Z,27.47
2019-02-18T03:09:38.497Z,27.38
2019-02-18T03:10:38.508Z,27.09
2019-02-18T03:11:38.513Z,26.62
2019-02-18T03:12:38.522Z,26.62
2019-02-18T03:13:38.533Z,26.53
2019-02-18T03:14:38.541Z,26.53
2019-02-18T03:15:38.558Z,26.53
2019-02-18T03:16:38.558Z,26.90
2019-02-18T03:17:38.571Z,27.38
2019-02-18T03:18:38.588Z,27.66
2019-02-18T03:19:38.586Z,27.76
2019-02-18T03:20:38.596Z,27.85
2019-02-18T03:21:38.606Z,27.66
2019-02-18T03:22:38.616Z,27.38
2019-02-18T03:23:38.623Z,27.00
2019-02-18T03:24:38.631Z,27.00
2019-02-18T03:25:38.643Z,26.43
2019-02-18T03:26:38.650Z,26.53
2019-02-18T03:27:38.659Z,26.24
2019-02-18T03:28:38.667Z,26.24
2019-02-18T03:29:38.679Z,26.53
2019-02-18T03:30:38.756Z,26.72
2019-02-18T03:31:38.711Z,26.62
2019-02-18T03:32:38.711Z,26.62
2019-02-18T03:33:38.722Z,26.43
2019-02-18T03:34:38.725Z,27.09
2019-02-18T03:35:38.733Z,27.09
2019-02-18T03:36:38.743Z,26.62
2019-02-18T03:37:38.754Z,26.43
2019-02-18T03:38:38.764Z,26.15
2019-02-18T03:39:38.770Z,25.58
2019-02-18T03:40:38.779Z,26.24
2019-02-18T03:41:40.894Z,26.72
2019-02-18T03:42:38.801Z,27.28
2019-02-18T03:43:38.817Z,27.47
2019-02-18T03:44:38.816Z,27.56
2019-02-18T03:45:38.835Z,27.57
2019-02-18T03:46:38.834Z,28.14
2019-02-18T03:47:38.848Z,28.80
2019-02-18T03:48:38.855Z,28.50
2019-02-18T03:49:38.861Z,28.50
2019-02-18T03:50:38.872Z,27.75
2019-02-18T03:51:38.883Z,27.75
2019-02-18T03:52:38.889Z,26.61
2019-02-18T03:53:38.899Z,26.70
2019-02-18T03:54:39.044Z,26.61
2019-02-18T03:55:38.936Z,26.62
2019-02-18T03:56:38.945Z,27.00
2019-02-18T03:57:38.939Z,26.15
2019-02-18T03:58:38.953Z,26.04
2019-02-18T03:59:38.961Z,26.15
2019-02-18T04:00:39.001Z,25.86
2019-02-18T04:01:38.972Z,26.34
2019-02-18T04:02:38.985Z,27.19
2019-02-18T04:03:39.004Z,27.19
2019-02-18T04:04:39.000Z,27.47
2019-02-18T04:05:39.016Z,26.62
2019-02-18T04:06:39.017Z,26.43
2019-02-18T04:07:39.028Z,25.20
2019-02-18T04:08:42.939Z,24.82
2019-02-18T04:09:39.048Z,24.35
2019-02-18T04:10:39.059Z,25.10
2019-02-18T04:11:39.065Z,24.91
2019-02-18T04:12:39.074Z,24.54
2019-02-18T04:13:39.083Z,25.67
2019-02-18T04:14:39.097Z,26.05
2019-02-18T04:15:39.099Z,25.77
2019-02-18T04:16:39.109Z,26.43
2019-02-18T04:17:39.119Z,27.28
2019-02-18T04:18:39.133Z,27.19
2019-02-18T04:19:39.137Z,26.53
2019-02-18T04:20:39.151Z,26.53
2019-02-18T04:21:39.158Z,26.62
2019-02-18T04:22:39.168Z,27.28
2019-02-18T04:23:39.173Z,27.38
2019-02-18T04:24:39.184Z,27.57
2019-02-18T04:25:39.202Z,27.28
2019-02-18T04:26:39.203Z,27.57
2019-02-18T04:27:39.215Z,26.43
2019-02-18T04:28:39.221Z,26.62
2019-02-18T04:29:39.228Z,27.19
2019-02-18T04:30:39.237Z,27.47
2019-02-18T04:31:39.248Z,27.47
2019-02-18T04:32:39.258Z,27.38
2019-02-18T04:33:39.269Z,27.47
2019-02-18T04:34:39.278Z,27.47
2019-02-18T04:35:39.284Z,27.17
2019-02-18T04:36:39.300Z,26.61
2019-02-18T04:37:39.306Z,26.15
2019-02-18T04:38:39.315Z,25.48
2019-02-18T04:39:39.319Z,25.58
2019-02-18T04:40:39.370Z,26.53
2019-02-18T04:41:39.342Z,25.39
2019-02-18T04:42:39.349Z,25.29
2019-02-18T04:43:41.996Z,25.48
2019-02-18T04:44:39.370Z,25.86
2019-02-18T04:45:39.377Z,25.01
2019-02-18T04:46:39.383Z,23.87
2019-02-18T04:47:39.395Z,23.59
2019-02-18T04:48:39.400Z,24.91
2019-02-18T04:49:39.412Z,25.77
2019-02-18T04:50:39.424Z,26.05
2019-02-18T04:51:39.447Z,26.53
2019-02-18T04:52:39.438Z,27.28
2019-02-18T04:53:39.447Z,27.28
2019-02-18T04:54:39.454Z,27.09
2019-02-18T04:55:39.464Z,27.19
2019-02-18T04:56:39.474Z,27.38
2019-02-18T04:57:39.502Z,27.19
2019-02-18T04:58:39.495Z,27.76
2019-02-18T04:59:39.504Z,27.76
2019-02-18T05:00:39.566Z,27.19
2019-02-18T05:01:39.520Z,26.61
2019-02-18T05:02:39.527Z,26.72
2019-02-18T05:03:39.537Z,26.72
2019-02-18T05:04:39.547Z,26.53
2019-02-18T05:05:39.560Z,26.61
2019-02-18T05:06:39.569Z,26.70
2019-02-18T05:07:39.580Z,26.61
2019-02-18T05:08:39.584Z,26.62
2019-02-18T05:09:40.094Z,26.70
2019-02-18T05:10:39.600Z,26.51
2019-02-18T05:11:39.611Z,26.61
2019-02-18T05:12:39.617Z,26.42
2019-02-18T05:13:39.628Z,27.27
2019-02-18T05:14:39.635Z,27.27
2019-02-18T05:15:40.320Z,27.65
2019-02-18T05:16:39.651Z,27.75
2019-02-18T05:17:39.662Z,27.65
2019-02-18T05:18:39.669Z,27.56
2019-02-18T05:19:39.680Z,27.75
2019-02-18T05:20:39.690Z,27.27
2019-02-18T05:21:39.704Z,27.17
2019-02-18T05:22:39.705Z,27.19
2019-02-18T05:23:39.716Z,27.27
2019-02-18T05:24:39.722Z,27.56
2019-02-18T05:25:39.734Z,27.65
2019-02-18T05:26:39.743Z,27.75
2019-02-18T05:27:39.755Z,27.75
2019-02-18T05:28:39.760Z,27.65
2019-02-18T05:29:39.769Z,27.65
2019-02-18T05:30:39.775Z,27.37
2019-02-18T05:31:39.788Z,27.27
2019-02-18T05:32:39.791Z,27.75
2019-02-18T05:33:39.802Z,27.84
2019-02-18T05:34:39.813Z,28.41
2019-02-18T05:35:39.820Z,28.50
2019-02-18T05:36:39.828Z,27.75
2019-02-18T05:37:39.838Z,27.94
2019-02-18T05:38:39.847Z,27.75
2019-02-18T05:39:39.865Z,27.46
2019-02-18T05:40:39.870Z,27.46
2019-02-18T05:41:39.887Z,27.84
2019-02-18T05:42:39.884Z,27.56
2019-02-18T05:43:39.889Z,27.65
2019-02-18T05:44:39.899Z,27.75
2019-02-18T05:45:39.906Z,28.41
2019-02-18T05:46:39.922Z,28.22
2019-02-18T05:47:39.925Z,28.03
2019-02-18T05:48:39.936Z,28.03
2019-02-18T05:49:39.941Z,28.22
2019-02-18T05:50:39.956Z,28.50
2019-02-18T05:51:39.960Z,28.88
2019-02-18T05:52:39.971Z,28.78
2019-02-18T05:53:39.976Z,28.59
2019-02-18T05:54:39.986Z,29.16
2019-02-18T05:55:39.993Z,29.16
2019-02-18T05:56:40.004Z,29.26
2019-02-18T05:57:40.013Z,29.26
2019-02-18T05:58:40.029Z,28.78
2019-02-18T05:59:40.031Z,28.88
2019-02-18T06:00:40.037Z,28.88
2019-02-18T06:01:40.048Z,28.59
2019-02-18T06:02:40.055Z,28.03
2019-02-18T06:03:40.065Z,27.75
2019-02-18T06:04:40.077Z,27.75
2019-02-18T06:05:40.082Z,27.56
2019-02-18T06:06:40.092Z,28.03
2019-02-18T06:07:40.098Z,28.50
2019-02-18T06:08:40.107Z,28.69
2019-02-18T06:09:40.119Z,28.78
2019-02-18T06:10:40.126Z,28.59
2019-02-18T06:11:40.132Z,28.50
2019-02-18T06:12:40.142Z,27.84
2019-02-18T06:13:40.153Z,27.56
2019-02-18T06:14:40.162Z,27.94
2019-02-18T06:15:40.174Z,28.22
2019-02-18T06:16:40.178Z,28.50
2019-02-18T06:17:40.190Z,28.78
2019-02-18T06:18:40.194Z,28.88
2019-02-18T06:19:40.201Z,28.97
2019-02-18T06:20:40.210Z,29.26
2019-02-18T06:21:40.219Z,28.69
2019-02-18T06:22:40.232Z,28.69
2019-02-18T06:23:40.238Z,28.50
2019-02-18T06:24:40.247Z,28.69
2019-02-18T06:25:40.257Z,28.59
2019-02-18T06:26:40.265Z,28.78
2019-02-18T06:27:40.364Z,29.26
2019-02-18T06:28:40.282Z,29.45
2019-02-18T06:29:40.295Z,29.35
2019-02-18T06:30:40.300Z,29.16
2019-02-18T06:31:40.308Z,28.69
2019-02-18T06:32:40.318Z,28.88
2019-02-18T06:33:40.334Z,28.41
2019-02-18T06:34:40.339Z,28.03
2019-02-18T06:35:40.344Z,28.41
2019-02-18T06:36:40.354Z,28.59
2019-02-18T06:37:40.363Z,28.69
2019-02-18T06:38:40.377Z,28.22
2019-02-18T06:39:41.872Z,28.22
2019-02-18T06:40:40.389Z,28.59
2019-02-18T06:41:40.401Z,28.59
2019-02-18T06:42:40.407Z,28.88
2019-02-18T06:43:40.414Z,28.78
2019-02-18T06:44:40.426Z,28.69
2019-02-18T06:45:40.434Z,28.50
2019-02-18T06:46:40.440Z,28.41
2019-02-18T06:47:40.449Z,28.22
2019-02-18T06:48:40.458Z,27.84
2019-02-18T06:49:40.467Z,27.94
2019-02-18T06:50:40.476Z,27.75
2019-02-18T06:51:40.483Z,27.75
2019-02-18T06:52:40.493Z,28.13
2019-02-18T06:53:40.500Z,28.50
2019-02-18T06:54:40.510Z,28.59
2019-02-18T06:55:40.582Z,28.41
2019-02-18T06:56:40.529Z,28.97
2019-02-18T06:57:40.539Z,28.88
2019-02-18T06:58:40.550Z,29.07
2019-02-18T06:59:40.552Z,29.07
2019-02-18T07:00:40.562Z,28.78
2019-02-18T07:01:40.571Z,28.97
2019-02-18T07:02:40.581Z,27.46
2019-02-18T07:03:40.587Z,27.17
2019-02-18T07:04:40.596Z,26.61
2019-02-18T07:05:40.605Z,27.56
2019-02-18T07:06:40.615Z,28.31
2019-02-18T07:07:40.623Z,28.59
2019-02-18T07:08:40.635Z,28.69
2019-02-18T07:09:50.502Z,28.50
2019-02-18T07:10:40.649Z,28.50
2019-02-18T07:11:40.660Z,28.50
2019-02-18T07:12:40.667Z,29.16
2019-02-18T07:13:40.677Z,28.31
2019-02-18T07:14:40.684Z,28.41
2019-02-18T07:15:40.692Z,28.97
2019-02-18T07:16:40.702Z,28.78
2019-02-18T07:17:40.713Z,29.26
2019-02-18T07:18:40.725Z,29.18
2019-02-18T07:19:40.731Z,29.45
2019-02-18T07:20:40.738Z,29.26
2019-02-18T07:21:40.748Z,28.88
2019-02-18T07:22:40.769Z,28.99
2019-02-18T07:23:40.764Z,28.99
2019-02-18T07:24:40.771Z,28.80
2019-02-18T07:25:40.783Z,28.89
2019-02-18T07:26:40.794Z,28.99
2019-02-18T07:27:40.799Z,28.88
2019-02-18T07:28:40.806Z,28.70
2019-02-18T07:29:40.817Z,28.61
2019-02-18T07:30:40.827Z,28.23
2019-02-18T07:31:40.832Z,28.33
2019-02-18T07:32:40.850Z,28.42
2019-02-18T07:33:40.850Z,28.52
2019-02-18T07:34:40.861Z,29.18
2019-02-18T07:35:40.867Z,29.18
2019-02-18T07:36:40.877Z,29.27
2019-02-18T07:37:40.886Z,29.46
2019-02-18T07:38:40.896Z,29.65
2019-02-18T07:39:40.903Z,29.37
2019-02-18T07:40:40.915Z,28.99
2019-02-18T07:41:40.921Z,28.61
2019-02-18T07:42:40.929Z,28.59
2019-02-18T07:43:40.937Z,28.61
2019-02-18T07:44:40.947Z,28.42
2019-02-18T07:45:40.955Z,28.61
2019-02-18T07:46:40.964Z,28.80
2019-02-18T07:47:40.971Z,28.33
2019-02-18T07:48:40.984Z,27.76
2019-02-18T07:49:40.991Z,27.76
2019-02-18T07:50:41.000Z,27.47
2019-02-18T07:51:41.007Z,27.38
2019-02-18T07:52:41.021Z,27.66
2019-02-18T07:53:41.024Z,28.33
2019-02-18T07:54:41.038Z,28.52
2019-02-18T07:55:41.045Z,28.70
2019-02-18T07:56:41.054Z,28.52
2019-02-18T07:57:41.061Z,28.52
2019-02-18T07:58:41.071Z,28.04
2019-02-18T07:59:42.816Z,27.57
2019-02-18T08:00:41.091Z,27.76
2019-02-18T08:01:41.098Z,27.47
2019-02-18T08:02:41.105Z,27.47
2019-02-18T08:03:41.115Z,27.95
2019-02-18T08:04:41.124Z,28.33
2019-02-18T08:05:41.132Z,28.52
2019-02-18T08:06:41.141Z,28.52
2019-02-18T08:07:41.153Z,28.99
2019-02-18T08:08:41.161Z,29.46
2019-02-18T08:09:41.194Z,29.56
2019-02-18T08:10:41.177Z,28.80
2019-02-18T08:11:41.185Z,28.99
2019-02-18T08:12:41.199Z,28.70
2019-02-18T08:13:41.203Z,28.23
2019-02-18T08:14:41.212Z,27.76
2019-02-18T08:15:41.225Z,27.47
2019-02-18T08:16:41.231Z,27.49
2019-02-18T08:17:41.242Z,27.30
2019-02-18T08:18:41.249Z,26.35
2019-02-18T08:19:41.261Z,26.16
2019-02-18T08:20:41.269Z,26.46
2019-02-18T08:21:41.326Z,26.08
2019-02-18T08:22:41.301Z,25.24
2019-02-18T08:23:41.297Z,25.15
2019-02-18T08:24:41.306Z,22.69
2019-02-18T08:25:41.314Z,21.83
2019-02-18T08:26:41.327Z,21.83
2019-02-18T08:27:41.337Z,22.40
2019-02-18T08:28:41.402Z,22.40
2019-02-18T08:29:41.352Z,22.69
2019-02-18T08:30:41.365Z,23.07
2019-02-18T08:31:41.374Z,22.02
2019-02-18T08:32:41.381Z,22.60
2019-02-18T08:33:41.392Z,22.99
2019-02-18T08:34:41.405Z,21.66
2019-02-18T08:35:41.410Z,21.28
2019-02-18T08:36:41.422Z,21.47
2019-02-18T08:37:41.430Z,22.41
2019-02-18T08:38:41.441Z,21.75
2019-02-18T08:39:41.453Z,21.26
2019-02-18T08:40:41.460Z,22.12
2019-02-18T08:41:41.473Z,22.40
2019-02-18T08:42:41.481Z,22.89
2019-02-18T08:43:41.493Z,23.55
2019-02-18T08:44:41.501Z,23.55
2019-02-18T08:45:41.514Z,22.70
2019-02-18T08:46:41.522Z,23.36
2019-02-18T08:47:41.532Z,23.65
2019-02-18T08:48:41.543Z,23.36
2019-02-18T08:49:41.554Z,23.36
2019-02-18T08:50:41.562Z,24.03
2019-02-18T08:51:41.575Z,23.66
2019-02-18T08:52:41.592Z,22.70
2019-02-18T08:53:41.593Z,22.41
2019-02-18T08:54:41.609Z,21.66
2019-02-18T08:55:41.613Z,22.80
2019-02-18T08:56:41.624Z,21.95
2019-02-18T08:57:41.635Z,21.84
2019-02-18T08:58:41.647Z,21.75
2019-02-18T08:59:41.658Z,21.66
2019-02-18T09:00:41.669Z,21.08
2019-02-18T09:01:41.679Z,21.75
2019-02-18T09:02:41.691Z,21.66
2019-02-18T09:03:41.699Z,22.13
2019-02-18T09:04:41.710Z,21.95
2019-02-18T09:05:41.729Z,21.86
2019-02-18T09:06:41.732Z,22.33
2019-02-18T09:07:41.744Z,21.47
2019-02-18T09:08:41.754Z,21.19
2019-02-18T09:09:41.765Z,21.57
2019-02-18T09:10:41.781Z,22.52
2019-02-18T09:11:41.789Z,22.71
2019-02-18T09:12:41.802Z,22.80
2019-02-18T09:13:41.810Z,22.05
2019-02-18T09:14:41.820Z,22.61
2019-02-18T09:15:41.830Z,21.38
2019-02-18T09:16:41.843Z,21.67
2019-02-18T09:17:41.857Z,23.00
2019-02-18T09:18:41.866Z,21.76
2019-02-18T09:19:41.877Z,21.00
2019-02-18T09:20:41.890Z,20.90
2019-02-18T09:21:41.899Z,21.18
2019-02-18T09:22:41.911Z,21.28
2019-02-18T09:23:41.923Z,22.61
2019-02-18T09:24:41.934Z,22.80
2019-02-18T09:25:43.558Z,23.38
2019-02-18T09:26:41.956Z,23.39
2019-02-18T09:27:41.965Z,23.00
2019-02-18T09:28:41.977Z,22.81
2019-02-18T09:29:41.992Z,24.43
2019-02-18T09:30:42.001Z,23.77
2019-02-18T09:31:42.936Z,22.06
2019-02-18T09:32:42.023Z,21.88
2019-02-18T09:33:42.038Z,21.69
2019-02-18T09:34:42.045Z,23.02
2019-02-18T09:35:42.056Z,21.50
2019-02-18T09:36:42.068Z,21.31
2019-02-18T09:37:42.082Z,20.54
2019-02-18T09:38:42.095Z,21.30
2019-02-18T09:39:42.107Z,21.69
2019-02-18T09:40:46.201Z,21.40
2019-02-18T09:41:42.128Z,21.69
2019-02-18T09:42:42.143Z,22.26
2019-02-18T09:43:42.155Z,21.39
2019-02-18T09:44:42.164Z,20.64
2019-02-18T09:45:42.177Z,21.40
2019-02-18T09:46:42.189Z,21.78
2019-02-18T09:47:42.199Z,21.78
2019-02-18T09:48:42.268Z,21.70
2019-02-18T09:49:42.224Z,21.41
2019-02-18T09:50:42.240Z,19.98
2019-02-18T09:51:42.249Z,20.17
2019-02-18T09:52:42.265Z,19.98
2019-02-18T09:53:42.278Z,21.21
2019-02-18T09:54:42.286Z,21.40
2019-02-18T09:55:42.302Z,22.55
2019-02-18T09:56:42.311Z,21.79
2019-02-18T09:57:42.327Z,21.51
2019-02-18T09:58:42.336Z,20.84
2019-02-18T09:59:42.348Z,21.22
2019-02-18T10:00:42.368Z,21.41
2019-02-18T10:01:43.279Z,21.60
2019-02-18T10:02:42.467Z,22.55
2019-02-18T10:03:42.402Z,22.47
2019-02-18T10:04:42.417Z,21.33
2019-02-18T10:05:42.426Z,20.57
2019-02-18T10:06:42.442Z,20.37
2019-02-18T10:07:42.466Z,20.28
2019-02-18T10:08:42.467Z,20.18
2019-02-18T10:09:42.525Z,20.08
2019-02-18T10:10:42.497Z,21.23
2019-02-18T10:11:42.505Z,21.71
2019-02-18T10:12:42.520Z,21.34
2019-02-18T10:13:42.529Z,21.15
2019-02-18T10:14:42.544Z,18.95
2019-02-18T10:15:42.557Z,18.57
2019-02-18T10:16:42.574Z,18.95
2019-02-18T10:17:42.585Z,18.47
2019-02-18T10:18:42.597Z,18.65
2019-02-18T10:19:43.148Z,19.60
2019-02-18T10:20:42.633Z,20.56
2019-02-18T10:21:42.641Z,20.95
2019-02-18T10:22:42.653Z,20.85
2019-02-18T10:23:42.666Z,21.51
2019-02-18T10:24:50.591Z,21.53
2019-02-18T10:25:42.691Z,20.28
2019-02-18T10:26:42.709Z,20.56
2019-02-18T10:27:42.719Z,20.76
2019-02-18T10:28:42.734Z,21.72
2019-02-18T10:29:42.751Z,20.86
2019-02-18T10:30:42.761Z,20.67
2019-02-18T10:31:42.776Z,20.96
2019-02-18T10:32:42.791Z,21.16
2019-02-18T10:33:42.803Z,20.86
2019-02-18T10:34:42.821Z,21.62
2019-02-18T10:35:42.829Z,20.67
2019-02-18T10:36:42.846Z,19.91
2019-02-18T10:37:42.862Z,20.76
2019-02-18T10:38:42.873Z,21.81
2019-02-18T10:39:42.889Z,21.25
2019-02-18T10:40:42.908Z,20.57
2019-02-18T10:41:42.916Z,19.91
2019-02-18T10:42:42.930Z,20.29
2019-02-18T10:43:42.945Z,20.10
2019-02-18T10:44:42.960Z,20.00
2019-02-18T10:45:42.976Z,20.67
2019-02-18T10:46:42.991Z,20.48
2019-02-18T10:47:43.006Z,20.29
2019-02-18T10:48:43.018Z,21.05
2019-02-18T10:49:43.034Z,20.86
2019-02-18T10:50:43.047Z,21.06
2019-02-18T10:51:43.064Z,19.82
2019-02-18T10:52:43.076Z,20.60
2019-02-18T10:53:43.096Z,20.40
2019-02-18T10:54:43.107Z,18.67
2019-02-18T10:55:43.120Z,18.48
2019-02-18T10:56:43.136Z,18.40
2019-02-18T10:57:43.150Z,17.81
2019-02-18T10:58:43.163Z,17.72
2019-02-18T10:59:43.179Z,18.77
2019-02-18T11:00:43.193Z,20.01
2019-02-18T11:01:43.212Z,19.62
2019-02-18T11:02:43.229Z,19.24
2019-02-18T11:03:43.239Z,20.40
2019-02-18T11:04:43.253Z,20.79
2019-02-18T11:05:43.268Z,19.25
2019-02-18T11:06:43.285Z,18.88
2019-02-18T11:07:43.297Z,19.45
2019-02-18T11:08:43.312Z,19.74
2019-02-18T11:09:43.329Z,19.35
2019-02-18T11:10:43.343Z,18.86
2019-02-18T11:11:43.360Z,18.48
2019-02-18T11:12:43.376Z,18.59
2019-02-18T11:13:43.389Z,19.92
2019-02-18T11:14:43.407Z,20.03
2019-02-18T11:15:43.419Z,18.98
2019-02-18T11:16:43.434Z,18.69
2019-02-18T11:17:43.448Z,19.26
2019-02-18T11:18:43.465Z,18.40
2019-02-18T11:19:43.480Z,19.93
2019-02-18T11:20:43.495Z,20.50
2019-02-18T11:21:43.514Z,21.26
2019-02-18T11:22:43.526Z,20.40
2019-02-18T11:23:43.543Z,19.35
2019-02-18T11:24:43.557Z,19.44
2019-02-18T11:25:43.683Z,21.92
2019-02-18T11:26:43.589Z,20.97
2019-02-18T11:27:43.603Z,20.87
2019-02-18T11:28:43.620Z,20.78
2019-02-18T11:29:43.637Z,20.87
2019-02-18T11:30:43.680Z,20.79
2019-02-18T11:31:43.667Z,20.31
2019-02-18T11:32:43.688Z,20.88
2019-02-18T11:33:43.701Z,21.45
2019-02-18T11:34:43.712Z,20.40
2019-02-18T11:35:43.727Z,20.31
2019-02-18T11:36:43.745Z,20.78
2019-02-18T11:37:43.761Z,21.64
2019-02-18T11:38:43.779Z,21.84
2019-02-18T11:39:43.792Z,21.08
2019-02-18T11:40:43.807Z,20.20
2019-02-18T11:41:43.822Z,21.55
2019-02-18T11:42:43.839Z,21.74
2019-02-18T11:43:43.857Z,21.93
2019-02-18T11:44:43.870Z,21.26
2019-02-18T11:45:43.888Z,20.49
2019-02-18T11:46:43.905Z,21.25
2019-02-18T11:47:43.919Z,20.40
2019-02-18T11:48:43.935Z,20.50
2019-02-18T11:49:43.950Z,20.40
2019-02-18T11:50:43.966Z,20.87
2019-02-18T11:51:43.983Z,20.30
2019-02-18T11:52:43.997Z,21.74
2019-02-18T11:53:44.014Z,20.50
2019-02-18T11:54:44.030Z,21.08
2019-02-18T11:55:44.046Z,19.55
2019-02-18T11:56:44.065Z,20.01
2019-02-18T11:57:44.078Z,21.16
2019-02-18T11:58:44.099Z,21.55
2019-02-18T11:59:44.109Z,20.60
2019-02-18T12:00:44.128Z,20.51
2019-02-18T12:01:44.142Z,21.57
2019-02-18T12:02:44.182Z,20.23
2019-02-18T12:03:44.183Z,19.28
2019-02-18T12:04:44.189Z,17.65
2019-02-18T12:05:44.210Z,17.55
2019-02-18T12:06:44.638Z,18.21
2019-02-18T12:07:44.239Z,19.17
2019-02-18T12:08:44.255Z,19.06
2019-02-18T12:09:44.269Z,18.88
2019-02-18T12:10:44.286Z,20.03
2019-02-18T12:11:44.300Z,18.70
2019-02-18T12:12:44.318Z,17.65
2019-02-18T12:13:44.338Z,18.60
2019-02-18T12:14:44.349Z,18.98
2019-02-18T12:15:44.369Z,19.26
2019-02-18T12:16:44.388Z,19.17
2019-02-18T12:17:44.400Z,20.61
2019-02-18T12:18:44.413Z,20.33
2019-02-18T12:19:44.429Z,18.41
2019-02-18T12:20:44.447Z,19.38
2019-02-18T12:21:44.460Z,19.29
2019-02-18T12:22:44.482Z,18.04
2019-02-18T12:23:44.493Z,18.99
2019-02-18T12:24:44.510Z,20.53
2019-02-18T12:25:44.528Z,17.19
2019-02-18T12:26:44.541Z,18.43
2019-02-18T12:27:44.557Z,17.47
2019-02-18T12:28:45.281Z,18.33
2019-02-18T12:29:44.588Z,18.99
2019-02-18T12:30:44.612Z,18.79
2019-02-18T12:31:44.623Z,18.98
2019-02-18T12:32:44.639Z,18.03
2019-02-18T12:33:44.653Z,20.61
2019-02-18T12:34:44.672Z,20.90
2019-02-18T12:35:44.686Z,18.13
2019-02-18T12:36:44.702Z,17.07
2019-02-18T12:37:54.716Z,18.88
2019-02-18T12:38:44.737Z,20.43
2019-02-18T12:39:44.750Z,18.89
2019-02-18T12:40:44.772Z,17.83
2019-02-18T12:41:48.646Z,18.13
2019-02-18T12:42:44.804Z,19.27
2019-02-18T12:43:44.821Z,19.84
2019-02-18T12:44:44.836Z,19.74
2019-02-18T12:45:44.857Z,19.95
2019-02-18T12:46:44.865Z,19.47
2019-02-18T12:47:44.881Z,19.18
2019-02-18T12:48:44.898Z,18.90
2019-02-18T12:49:44.916Z,18.33
2019-02-18T12:50:44.931Z,17.47
2019-02-18T12:51:44.947Z,17.76
2019-02-18T12:52:44.963Z,17.66